createdAt,value
2023-03-31T00:01:45.072Z,99208.27
2023-03-31T00:06:48.475Z,99207.77
2023-03-31T00:11:52.505Z,99204.05
2023-03-31T00:17:06.337Z,99199.27
2023-03-31T00:22:09.745Z,99207.11
2023-03-31T00:27:13.526Z,99211.69
2023-03-31T00:32:16.794Z,99217.84
2023-03-31T00:37:20.462Z,99213.58
2023-03-31T00:42:24.234Z,99208.06
2023-03-31T00:47:30.246Z,99207.92
2023-03-31T00:52:37.572Z,99204.01
2023-03-31T00:57:42.372Z,99204.58
2023-03-31T01:02:53.278Z,99202.59
2023-03-31T01:07:59.906Z,99204.69
2023-03-31T01:13:04.722Z,99202.97
2023-03-31T01:18:10.990Z,99200.05
2023-03-31T01:23:39.031Z,99202.22
2023-03-31T01:28:48.422Z,99198.58
2023-03-31T01:34:56.999Z,99195.70
2023-03-31T01:40:09.792Z,99186.80
2023-03-31T01:45:23.492Z,99196.33
2023-03-31T01:50:34.808Z,99195.80
2023-03-31T01:55:44.157Z,99202.38
2023-03-31T02:01:10.973Z,99203.81
2023-03-31T02:06:22.569Z,99201.45
2023-03-31T02:11:28.877Z,99204.35
2023-03-31T02:16:37.873Z,99204.08
2023-03-31T02:21:41.963Z,99201.77
2023-03-31T02:27:13.319Z,99212.96
2023-03-31T02:32:22.900Z,99208.19
2023-03-31T02:37:27.538Z,99210.08
2023-03-31T02:42:33.994Z,99208.52
2023-03-31T02:47:39.736Z,99209.45
2023-03-31T02:53:24.516Z,99204.45
2023-03-31T02:58:39.709Z,99205.63
2023-03-31T03:04:23.295Z,99211.81
2023-03-31T03:10:23.115Z,99215.63
2023-03-31T03:15:54.108Z,99219.44
2023-03-31T03:20:57.705Z,99221.59
2023-03-31T03:26:01.275Z,99225.02
2023-03-31T03:31:09.515Z,99226.24
2023-03-31T03:36:31.142Z,99228.05
2023-03-31T03:41:35.543Z,99231.61
2023-03-31T03:46:42.224Z,99235.19
2023-03-31T03:51:45.751Z,99231.54
2023-03-31T03:56:51.778Z,99228.63
2023-03-31T04:01:58.126Z,99233.12
2023-03-31T04:07:01.588Z,99235.64
2023-03-31T04:12:15.362Z,99234.47
2023-03-31T04:17:18.982Z,99234.48
2023-03-31T04:22:22.377Z,99234.05
2023-03-31T04:27:35.177Z,99236.92
2023-03-31T04:32:38.691Z,99239.27
2023-03-31T04:37:42.280Z,99234.91
2023-03-31T04:42:48.945Z,99226.69
2023-03-31T04:48:13.405Z,99229.17
2023-03-31T04:53:16.716Z,99226.73
2023-03-31T04:58:20.469Z,99226.34
2023-03-31T05:03:44.712Z,99225.49
2023-03-31T05:08:48.128Z,99221.14
2023-03-31T05:14:01.879Z,99217.22
2023-03-31T05:19:05.917Z,99213.35
2023-03-31T05:24:09.752Z,99211.91
2023-03-31T05:29:13.344Z,99206.45
2023-03-31T05:34:17.099Z,99211.73
2023-03-31T05:39:21.438Z,99207.67
2023-03-31T05:44:45.382Z,99196.57
2023-03-31T05:50:01.226Z,99201.67
2023-03-31T05:55:08.418Z,99197.64
2023-03-31T06:00:32.831Z,99191.22
2023-03-31T06:05:36.407Z,99187.89
2023-03-31T06:10:40.808Z,99186.05
2023-03-31T06:15:44.378Z,99183.19
2023-03-31T06:20:47.826Z,99176.01
2023-03-31T06:25:52.214Z,99174.48
2023-03-31T06:31:04.936Z,99184.49
2023-03-31T06:36:28.856Z,99184.68
2023-03-31T06:41:32.317Z,99184.80
2023-03-31T06:46:36.469Z,99177.42
2023-03-31T06:51:42.516Z,99174.66
2023-03-31T06:56:45.954Z,99174.44
2023-03-31T07:01:50.803Z,99176.70
2023-03-31T07:06:54.311Z,99180.33
2023-03-31T07:11:57.628Z,99179.66
2023-03-31T07:17:01.054Z,99176.02
2023-03-31T07:22:07.461Z,99183.27
2023-03-31T07:27:10.879Z,99178.56
2023-03-31T07:32:14.466Z,99175.77
2023-03-31T07:37:25.991Z,99174.54
2023-03-31T07:42:29.362Z,99173.69
2023-03-31T07:47:40.163Z,99172.98
2023-03-31T07:52:47.573Z,99171.27
2023-03-31T07:57:53.602Z,99172.39
2023-03-31T08:02:57.234Z,99161.60
2023-03-31T08:08:00.812Z,99152.88
2023-03-31T08:13:04.241Z,99146.80
2023-03-31T08:18:08.385Z,99143.21
2023-03-31T08:23:12.312Z,99139.81
2023-03-31T08:28:15.632Z,99138.79
2023-03-31T08:33:19.023Z,99130.86
2023-03-31T08:38:22.253Z,99120.29
2023-03-31T08:43:32.861Z,99124.33
2023-03-31T08:48:45.520Z,99116.27
2023-03-31T08:53:55.795Z,99110.71
2023-03-31T08:59:02.458Z,99103.23
2023-03-31T09:04:21.528Z,99102.05
2023-03-31T09:10:03.566Z,99099.39
2023-03-31T09:15:14.668Z,99098.21
2023-03-31T09:20:33.212Z,99093.98
2023-03-31T09:25:39.189Z,99087.89
2023-03-31T09:30:43.259Z,99083.41
2023-03-31T09:35:47.267Z,99082.19
2023-03-31T09:40:51.145Z,99085.16
2023-03-31T09:46:08.727Z,99081.23
2023-03-31T09:51:22.686Z,99076.64
2023-03-31T09:56:35.092Z,99076.04
2023-03-31T10:01:38.525Z,99071.02
2023-03-31T10:06:43.075Z,99066.93
2023-03-31T10:11:59.539Z,99054.98
2023-03-31T10:17:06.995Z,99042.80
2023-03-31T10:22:17.219Z,99036.66
2023-03-31T10:27:26.898Z,99028.23
2023-03-31T10:32:32.991Z,99021.34
2023-03-31T10:37:37.821Z,99017.85
2023-03-31T10:42:44.313Z,99013.42
2023-03-31T10:47:50.152Z,99015.16
2023-03-31T10:53:05.690Z,99011.80
2023-03-31T10:58:40.110Z,99008.61
2023-03-31T11:03:57.172Z,99002.23
2023-03-31T11:09:32.433Z,98997.95
2023-03-31T11:15:04.259Z,98987.95
2023-03-31T11:20:42.396Z,98978.61
2023-03-31T11:25:45.836Z,98973.23
2023-03-31T11:31:14.510Z,98966.61
2023-03-31T11:36:28.794Z,98968.34
2023-03-31T11:41:40.006Z,98966.31
2023-03-31T11:47:10.084Z,98961.27
2023-03-31T11:52:19.595Z,98959.09
2023-03-31T11:58:04.943Z,98949.36
2023-03-31T12:03:37.814Z,98942.02
2023-03-31T12:08:53.726Z,98936.02
2023-03-31T12:14:22.192Z,98919.94
2023-03-31T12:19:41.049Z,98913.88
2023-03-31T12:24:44.535Z,98909.02
2023-03-31T12:30:07.970Z,98899.44
2023-03-31T12:35:22.259Z,98892.85
2023-03-31T12:40:25.667Z,98891.29
2023-03-31T12:45:31.533Z,98880.52
2023-03-31T12:51:03.220Z,98880.10
2023-03-31T12:56:07.114Z,98867.00
2023-03-31T13:01:24.454Z,98864.60
2023-03-31T13:06:27.866Z,98854.70
2023-03-31T13:11:34.378Z,98851.56
2023-03-31T13:16:37.791Z,98846.30
2023-03-31T13:22:07.920Z,98840.29
2023-03-31T13:27:48.555Z,98836.98
2023-03-31T13:33:19.615Z,98831.85
2023-03-31T13:38:37.852Z,98827.13
2023-03-31T13:44:11.078Z,98822.42
2023-03-31T13:49:36.689Z,98812.34
2023-03-31T13:54:54.800Z,98808.70
2023-03-31T14:00:17.253Z,98798.98
2023-03-31T14:06:02.667Z,98788.68
2023-03-31T14:11:24.989Z,98779.78
2023-03-31T14:16:31.755Z,98774.79
2023-03-31T14:21:47.209Z,98769.81
2023-03-31T14:26:53.736Z,98766.44
2023-03-31T14:32:24.819Z,98765.53
2023-03-31T14:37:28.308Z,98760.94
2023-03-31T14:42:40.324Z,98757.74
2023-03-31T14:47:53.258Z,98749.91
2023-03-31T14:52:57.124Z,98750.27
2023-03-31T14:58:32.590Z,98743.88
2023-03-31T15:03:41.788Z,98743.71
2023-03-31T15:08:46.305Z,98736.03
2023-03-31T15:14:04.178Z,98730.52
2023-03-31T15:19:23.528Z,98746.47
2023-03-31T15:24:26.814Z,98753.23
2023-03-31T15:29:41.668Z,98743.10
2023-03-31T15:34:47.982Z,98737.84
2023-03-31T15:39:59.879Z,98732.96
2023-03-31T15:45:16.016Z,98725.75
2023-03-31T15:50:23.722Z,98712.73
2023-03-31T15:55:33.376Z,98701.98
2023-03-31T16:00:53.373Z,98697.46
2023-03-31T16:06:04.558Z,98695.16
2023-03-31T16:11:23.229Z,98692.23
2023-03-31T16:16:28.831Z,98684.66
2023-03-31T16:21:40.898Z,98678.48
2023-03-31T16:26:44.662Z,98673.66
2023-03-31T16:31:48.597Z,98665.41
2023-03-31T16:36:52.332Z,98663.77
2023-03-31T16:41:55.876Z,98657.59
2023-03-31T16:47:02.091Z,98650.42
2023-03-31T16:52:06.721Z,98644.94
2023-03-31T16:57:10.336Z,98642.74
2023-03-31T17:02:14.033Z,98636.41
2023-03-31T17:07:17.531Z,98635.52
2023-03-31T17:12:20.942Z,98634.77
2023-03-31T17:17:24.369Z,98631.66
2023-03-31T17:22:27.983Z,98634.46
2023-03-31T17:27:32.373Z,98688.91
2023-03-31T17:32:46.576Z,98682.48
2023-03-31T17:37:53.779Z,98676.25
2023-03-31T17:42:57.412Z,98674.58
2023-03-31T17:48:01.245Z,98672.88
2023-03-31T17:53:09.193Z,98668.73
2023-03-31T17:58:13.809Z,98667.06
2023-03-31T18:03:17.796Z,98664.49
2023-03-31T18:08:21.357Z,98660.40
2023-03-31T18:13:25.337Z,98656.39
2023-03-31T18:18:29.198Z,98653.66
2023-03-31T18:23:32.522Z,98647.17
2023-03-31T18:28:36.307Z,98645.34
2023-03-31T18:33:40.363Z,98641.05
2023-03-31T18:38:45.402Z,98640.05
2023-03-31T18:43:59.245Z,98631.73
2023-03-31T18:49:05.985Z,98630.85
2023-03-31T18:54:10.011Z,98619.45
2023-03-31T18:59:13.486Z,98608.66
2023-03-31T19:04:38.247Z,98603.44
2023-03-31T19:10:02.575Z,98600.42
2023-03-31T19:15:07.233Z,98600.79
2023-03-31T19:20:17.842Z,98597.46
2023-03-31T19:25:21.728Z,98597.14
2023-03-31T19:30:37.326Z,98589.15
2023-03-31T19:35:45.642Z,98573.91
2023-03-31T19:40:50.091Z,98568.34
2023-03-31T19:45:57.701Z,98556.81
2023-03-31T19:51:04.868Z,98541.66
2023-03-31T19:56:12.037Z,98531.41
2023-03-31T20:01:18.986Z,98522.76
2023-03-31T20:06:35.776Z,98525.30
2023-03-31T20:11:43.560Z,98532.25
2023-03-31T20:16:48.170Z,98538.70
2023-03-31T20:21:57.868Z,98537.92
2023-03-31T20:27:01.711Z,98532.31
2023-03-31T20:32:05.915Z,98528.80
2023-03-31T20:37:09.262Z,98523.88
2023-03-31T20:42:32.832Z,98514.52
2023-03-31T20:47:36.205Z,98511.73
2023-03-31T20:52:39.819Z,98505.27
2023-03-31T20:57:43.271Z,98504.11
2023-03-31T21:02:46.669Z,98501.88
2023-03-31T21:07:50.422Z,98502.77
2023-03-31T21:12:54.493Z,98498.11
2023-03-31T21:17:57.861Z,98494.30
2023-03-31T21:23:01.534Z,98494.71
2023-03-31T21:28:04.901Z,98491.48
2023-03-31T21:33:11.447Z,98490.00
2023-03-31T21:38:16.876Z,98480.54
2023-03-31T21:43:20.525Z,98479.89
2023-03-31T21:48:26.472Z,98478.30
2023-03-31T21:53:31.825Z,98476.06
2023-03-31T21:58:35.897Z,98474.61
2023-03-31T22:03:41.194Z,98472.85
2023-03-31T22:08:44.718Z,98467.05
2023-03-31T22:13:50.701Z,98462.29
2023-03-31T22:18:55.305Z,98463.25
2023-03-31T22:24:03.529Z,98464.80
2023-03-31T22:29:07.006Z,98467.38
2023-03-31T22:34:10.567Z,98468.53
2023-03-31T22:39:15.210Z,98466.96
2023-03-31T22:44:18.783Z,98462.57
2023-03-31T22:49:25.491Z,98456.42
2023-03-31T22:54:28.980Z,98451.14
2023-03-31T22:59:32.957Z,98444.36
2023-03-31T23:04:36.762Z,98444.12
2023-03-31T23:09:40.085Z,98440.67
2023-03-31T23:14:43.576Z,98441.13
2023-03-31T23:19:57.514Z,98441.48
2023-03-31T23:25:01.948Z,98442.85
2023-03-31T23:30:06.553Z,98433.23
2023-03-31T23:35:11.877Z,98439.34
2023-03-31T23:40:24.302Z,98432.02
2023-03-31T23:45:27.785Z,98436.02
2023-03-31T23:50:31.693Z,98433.17
2023-03-31T23:55:38.785Z,98430.89
